Time;durP1;ratioP1;P1;durP2;ratioP2;P2;SDS_P1;SDS_P2;PMS_P1;PMS_P2;Temp;Humidity;BMP_temperature;BMP_pressure;BME280_temperature;BME280_humidity;BME280_pressure;Samples;Min_cycle;Max_cycle;Signal;HPM_P1;HPM_P2
2023/01/25 00:01:51;;;;;;;16.00;6.27;;;3.90;99.90;;;;;;5115008;28;20038;-75
2023/01/25 00:04:20;;;;;;;14.97;6.70;;;3.90;99.90;;;;;;5096298;28;20024;-75
2023/01/25 00:06:47;;;;;;;13.53;6.80;;;3.80;99.90;;;;;;5097138;28;20030;-75
2023/01/25 00:09:13;;;;;;;13.73;6.47;;;3.80;99.90;;;;;;5096666;28;20024;-86
2023/01/25 00:11:38;;;;;;;13.60;6.50;;;3.80;99.90;;;;;;5114650;28;20503;-75
2023/01/25 00:14:04;;;;;;;14.50;6.93;;;3.90;99.90;;;;;;5096645;28;20028;-74
2023/01/25 00:16:31;;;;;;;15.83;7.07;;;3.90;99.90;;;;;;5096022;28;20028;-75
2023/01/25 00:18:56;;;;;;;14.30;6.70;;;3.90;99.90;;;;;;5105918;28;20078;-74
2023/01/25 00:21:24;;;;;;;13.77;7.03;;;3.80;99.90;;;;;;5113060;28;20063;-75
2023/01/25 00:23:50;;;;;;;15.80;7.40;;;3.80;99.90;;;;;;5120196;28;20031;-74
2023/01/25 00:26:16;;;;;;;15.37;7.43;;;3.80;99.90;;;;;;5122792;28;20104;-78
2023/01/25 00:28:42;;;;;;;14.77;7.10;;;3.80;99.90;;;;;;5114032;28;20058;-76
2023/01/25 00:31:14;;;;;;;14.37;6.67;;;3.80;99.90;;;;;;5113955;28;20034;-75
2023/01/25 00:33:49;;;;;;;16.43;7.90;;;3.80;99.90;;;;;;5112221;28;20038;-75
2023/01/25 00:36:33;;;;;;;14.93;6.43;;;3.80;99.90;;;;;;5112122;28;20024;-87
2023/01/25 00:38:59;;;;;;;13.60;6.63;;;3.80;99.90;;;;;;5112348;28;20526;-76
2023/01/25 00:41:25;;;;;;;17.67;7.57;;;3.80;99.90;;;;;;5112863;28;20026;-76
2023/01/25 00:43:50;;;;;;;14.53;7.27;;;3.80;99.90;;;;;;5112141;28;20455;-76
2023/01/25 00:46:17;;;;;;;15.53;7.13;;;3.80;99.90;;;;;;5111960;28;20024;-83
2023/01/25 00:48:43;;;;;;;17.40;7.73;;;3.80;99.90;;;;;;5103791;28;20020;-76
2023/01/25 00:51:08;;;;;;;14.70;6.60;;;3.80;99.90;;;;;;5095406;28;20126;-77
2023/01/25 00:53:34;;;;;;;17.93;7.03;;;3.80;99.90;;;;;;5094671;28;20026;-77
2023/01/25 00:56:00;;;;;;;16.77;7.13;;;3.80;99.90;;;;;;5113506;28;20020;-76
2023/01/25 00:58:25;;;;;;;16.13;6.73;;;3.80;99.90;;;;;;5112642;28;20365;-75
2023/01/25 01:00:52;;;;;;;15.57;7.30;;;3.80;99.90;;;;;;5095147;28;20050;-76
2023/01/25 01:03:18;;;;;;;17.03;7.20;;;3.80;99.90;;;;;;5094263;28;20446;-77
2023/01/25 01:05:43;;;;;;;14.10;6.80;;;3.80;99.90;;;;;;5094916;28;20027;-75
2023/01/25 01:08:11;;;;;;;14.83;7.47;;;3.80;99.90;;;;;;5095303;28;20020;-75
2023/01/25 01:10:36;;;;;;;14.83;7.03;;;3.80;99.90;;;;;;5112691;28;20016;-75
2023/01/25 01:13:02;;;;;;;15.10;6.67;;;3.80;99.90;;;;;;5101643;28;20038;-75
2023/01/25 01:15:27;;;;;;;15.40;7.20;;;3.80;99.90;;;;;;5112591;28;20038;-75
2023/01/25 01:17:53;;;;;;;15.90;7.03;;;3.80;99.90;;;;;;5111347;28;20055;-75
2023/01/25 01:20:19;;;;;;;14.00;6.77;;;3.80;99.90;;;;;;5112547;28;20034;-80
2023/01/25 01:22:44;;;;;;;16.70;7.23;;;3.80;99.90;;;;;;5094574;28;20085;-76
2023/01/25 01:25:12;;;;;;;15.03;6.90;;;3.80;99.90;;;;;;5094696;28;20497;-76
2023/01/25 01:27:37;;;;;;;15.03;7.10;;;3.70;99.90;;;;;;5094201;28;20027;-75
2023/01/25 01:30:04;;;;;;;14.57;7.60;;;3.70;99.90;;;;;;5102246;28;20465;-75
2023/01/25 01:32:29;;;;;;;16.97;7.23;;;3.70;99.90;;;;;;5112002;28;20039;-75
2023/01/25 01:34:55;;;;;;;16.60;7.37;;;3.70;99.90;;;;;;5094661;28;20023;-75
2023/01/25 01:37:20;;;;;;;12.97;6.80;;;3.70;99.90;;;;;;5101913;28;20032;-76
2023/01/25 01:39:46;;;;;;;12.57;6.60;;;3.70;99.90;;;;;;5113037;28;20034;-75
2023/01/25 01:42:12;;;;;;;12.47;6.63;;;3.70;99.90;;;;;;5111530;28;20058;-74
2023/01/25 01:44:46;;;;;;;12.70;6.70;;;3.70;99.90;;;;;;5110860;28;20027;-75
2023/01/25 01:47:27;;;;;;;14.50;6.53;;;3.70;99.90;;;;;;5111591;28;20474;-77
2023/01/25 01:49:58;;;;;;;20.20;7.97;;;3.80;99.90;;;;;;5111550;28;20027;-75
2023/01/25 01:52:28;;;;;;;14.18;7.28;;;3.70;99.90;;;;;;5112332;28;20472;-75
2023/01/25 01:55:14;;;;;;;15.80;7.43;;;3.80;99.90;;;;;;5111830;28;20392;-75
2023/01/25 01:57:41;;;;;;;16.73;7.37;;;3.70;99.90;;;;;;5112030;28;20016;-75
2023/01/25 02:00:17;;;;;;;13.30;6.90;;;3.70;99.90;;;;;;5113286;28;20156;-75
2023/01/25 02:02:45;;;;;;;14.57;7.20;;;3.70;99.90;;;;;;5111333;28;20031;-75
2023/01/25 02:05:18;;;;;;;14.83;7.53;;;3.70;99.90;;;;;;5114098;28;20031;-75
2023/01/25 02:07:45;;;;;;;15.70;7.13;;;3.70;99.90;;;;;;5114909;28;20380;-75
2023/01/25 02:10:12;;;;;;;14.73;7.07;;;3.80;99.90;;;;;;5115089;28;20055;-75
2023/01/25 02:12:38;;;;;;;15.17;7.23;;;3.80;99.90;;;;;;5114651;28;20024;-75
2023/01/25 02:15:04;;;;;;;15.73;6.77;;;3.80;99.90;;;;;;5116261;28;20107;-75
2023/01/25 02:17:33;;;;;;;17.27;7.63;;;3.80;99.90;;;;;;5115602;28;20024;-76
2023/01/25 02:20:16;;;;;;;17.80;7.17;;;3.70;99.90;;;;;;5116434;28;20536;-75
2023/01/25 02:23:07;;;;;;;16.97;7.00;;;3.70;99.90;;;;;;5097659;28;20043;-75
2023/01/25 02:25:32;;;;;;;15.93;7.80;;;3.70;99.90;;;;;;5097760;28;20024;-75
2023/01/25 02:28:21;;;;;;;14.10;6.83;;;3.70;99.90;;;;;;5116389;28;20406;-75
2023/01/25 02:30:47;;;;;;;14.93;7.10;;;3.70;99.90;;;;;;5080301;28;20101;-76
2023/01/25 02:33:13;;;;;;;19.90;8.10;;;3.70;99.90;;;;;;5097990;28;20041;-75
2023/01/25 02:35:56;;;;;;;14.13;6.87;;;3.80;99.90;;;;;;5115581;28;20473;-75
2023/01/25 02:38:22;;;;;;;16.30;7.07;;;3.80;99.90;;;;;;5097426;28;20055;-83
2023/01/25 02:40:58;;;;;;;17.57;7.43;;;3.80;99.90;;;;;;5097576;28;20051;-75
2023/01/25 02:43:28;;;;;;;16.80;7.80;;;3.70;99.90;;;;;;5097289;28;20028;-85
2023/01/25 02:46:01;;;;;;;15.53;6.73;;;3.80;99.90;;;;;;5097881;28;20020;-76
2023/01/25 02:48:27;;;;;;;18.67;7.57;;;3.80;99.90;;;;;;5097151;28;20055;-76
2023/01/25 02:50:52;;;;;;;15.97;7.53;;;3.80;99.90;;;;;;5097445;28;20067;-75
2023/01/25 02:53:18;;;;;;;15.93;7.60;;;3.80;99.90;;;;;;5097593;28;20500;-75
2023/01/25 02:55:44;;;;;;;17.43;7.83;;;3.70;99.90;;;;;;5097047;28;20023;-76
2023/01/25 02:58:09;;;;;;;17.17;7.57;;;3.80;99.90;;;;;;5115629;28;20110;-76
2023/01/25 03:00:35;;;;;;;14.07;7.03;;;3.80;99.90;;;;;;5096874;28;20019;-76
2023/01/25 03:03:00;;;;;;;16.00;8.00;;;3.80;99.90;;;;;;5097451;28;20036;-76
2023/01/25 03:05:26;;;;;;;17.00;6.97;;;3.80;99.90;;;;;;5096880;28;20046;-76
2023/01/25 03:07:52;;;;;;;13.50;7.30;;;3.70;99.90;;;;;;5097336;28;20114;-76
2023/01/25 03:10:17;;;;;;;15.60;7.00;;;3.80;99.90;;;;;;5097390;28;20023;-75
2023/01/25 03:12:43;;;;;;;17.43;7.53;;;3.70;99.90;;;;;;5114990;28;20020;-76
2023/01/25 03:15:08;;;;;;;17.93;8.10;;;3.70;99.90;;;;;;5115410;28;20036;-76
2023/01/25 03:17:34;;;;;;;16.97;7.73;;;3.70;99.90;;;;;;5096401;28;20024;-76
2023/01/25 03:20:00;;;;;;;17.37;7.60;;;3.70;99.90;;;;;;5097260;28;20468;-76
2023/01/25 03:22:25;;;;;;;14.97;7.30;;;3.70;99.90;;;;;;5096618;28;20042;-83
2023/01/25 03:24:51;;;;;;;15.83;7.60;;;3.70;99.90;;;;;;5114942;28;20055;-76
2023/01/25 03:27:17;;;;;;;17.03;7.57;;;3.70;99.90;;;;;;5096855;28;20507;-76
2023/01/25 03:29:43;;;;;;;16.13;7.20;;;3.70;99.90;;;;;;5096606;28;20483;-76
2023/01/25 03:32:09;;;;;;;18.97;7.47;;;3.70;99.90;;;;;;5114804;28;20028;-76
2023/01/25 03:34:35;;;;;;;18.27;7.57;;;3.70;99.90;;;;;;5096576;28;20098;-76
2023/01/25 03:37:01;;;;;;;15.43;8.07;;;3.70;99.90;;;;;;5096833;28;20063;-75
2023/01/25 03:39:27;;;;;;;15.93;7.90;;;3.70;99.90;;;;;;5095744;28;20111;-84
2023/01/25 03:41:53;;;;;;;15.23;7.37;;;3.70;99.90;;;;;;5114561;28;20039;-76
2023/01/25 03:44:18;;;;;;;15.83;7.97;;;3.70;99.90;;;;;;5114552;28;20384;-76
2023/01/25 03:46:44;;;;;;;15.83;7.67;;;3.70;99.90;;;;;;5096079;28;20022;-76
2023/01/25 03:49:09;;;;;;;17.30;7.57;;;3.60;99.90;;;;;;5114633;28;20575;-76
2023/01/25 03:51:35;;;;;;;15.37;7.27;;;3.60;99.90;;;;;;5113826;28;20024;-76
2023/01/25 03:54:01;;;;;;;18.90;8.40;;;3.60;99.90;;;;;;5096134;28;20100;-76
2023/01/25 03:56:26;;;;;;;19.23;7.67;;;3.70;99.90;;;;;;5095677;28;20153;-85
2023/01/25 03:58:52;;;;;;;17.07;7.60;;;3.60;99.90;;;;;;5096052;28;20118;-76
2023/01/25 04:01:17;;;;;;;18.37;8.10;;;3.70;99.90;;;;;;5114088;28;20409;-76
2023/01/25 04:03:43;;;;;;;18.70;7.97;;;3.60;99.90;;;;;;5113401;28;20530;-76
2023/01/25 04:06:09;;;;;;;17.27;7.60;;;3.60;99.90;;;;;;5095963;28;20077;-76
2023/01/25 04:08:36;;;;;;;14.87;7.70;;;3.70;99.90;;;;;;5111869;28;20103;-76
2023/01/25 04:11:08;;;;;;;15.60;7.33;;;3.70;99.90;;;;;;5080701;28;20073;-76
2023/01/25 04:13:36;;;;;;;;;;;3.70;99.90;;;;;;5096287;28;20469;-76
2023/01/25 04:16:07;;;;;;;16.60;6.97;;;3.70;99.90;;;;;;5095775;28;20407;-75
2023/01/25 04:18:33;;;;;;;14.80;7.50;;;3.70;99.90;;;;;;5112712;28;20056;-76
2023/01/25 04:20:58;;;;;;;18.60;8.70;;;3.60;99.90;;;;;;5095496;28;20126;-75
2023/01/25 04:23:25;;;;;;;17.13;8.07;;;3.60;99.90;;;;;;5113683;28;20443;-75
2023/01/25 04:25:55;;;;;;;16.47;8.20;;;3.60;99.90;;;;;;5095173;28;20477;-74
2023/01/25 04:28:22;;;;;;;38.70;15.30;;;3.60;99.90;;;;;;5112747;28;20122;-75
2023/01/25 04:30:48;;;;;;;19.00;8.67;;;3.60;99.90;;;;;;5094803;28;20020;-75
2023/01/25 04:33:14;;;;;;;20.27;8.97;;;3.60;99.90;;;;;;5095525;28;20375;-75
2023/01/25 04:35:39;;;;;;;14.60;7.90;;;3.60;99.90;;;;;;5095370;28;20059;-76
2023/01/25 04:38:05;;;;;;;16.73;7.70;;;3.60;99.90;;;;;;5095453;28;20023;-76
2023/01/25 04:40:31;;;;;;;15.70;7.43;;;3.60;99.90;;;;;;5094943;28;20461;-76
2023/01/25 04:42:57;;;;;;;17.03;7.77;;;3.60;99.90;;;;;;5095651;28;20093;-76
2023/01/25 04:45:24;;;;;;;16.77;7.73;;;3.60;99.90;;;;;;5095415;28;20114;-76
2023/01/25 04:47:55;;;;;;;15.90;7.57;;;3.60;99.90;;;;;;5113260;28;20019;-75
2023/01/25 04:50:21;;;;;;;16.70;7.77;;;3.60;99.90;;;;;;5095153;28;20123;-75
2023/01/25 04:52:46;;;;;;;15.73;7.30;;;3.60;99.90;;;;;;5094930;28;20466;-75
2023/01/25 04:55:12;;;;;;;18.00;7.70;;;3.60;99.90;;;;;;5095426;28;20027;-75
2023/01/25 04:57:37;;;;;;;16.13;7.80;;;3.60;99.90;;;;;;5113070;28;20027;-75
2023/01/25 05:00:04;;;;;;;16.47;7.53;;;3.50;99.90;;;;;;5095235;28;20019;-76
2023/01/25 05:02:29;;;;;;;17.83;8.37;;;3.50;99.90;;;;;;5094822;28;20023;-84
2023/01/25 05:04:55;;;;;;;16.33;8.07;;;3.50;99.90;;;;;;5094966;28;20028;-76
2023/01/25 05:07:20;;;;;;;18.97;8.00;;;3.50;99.90;;;;;;5095407;28;20030;-75
2023/01/25 05:09:46;;;;;;;18.73;8.10;;;3.50;99.90;;;;;;5112766;28;20445;-76
2023/01/25 05:12:12;;;;;;;16.30;7.27;;;3.40;99.90;;;;;;5094920;28;20030;-76
2023/01/25 05:14:41;;;;;;;21.93;8.43;;;3.40;99.90;;;;;;5094270;28;20050;-76
2023/01/25 05:17:07;;;;;;;15.30;6.90;;;3.40;99.90;;;;;;5094999;28;20094;-76
2023/01/25 05:19:33;;;;;;;18.53;8.17;;;3.40;99.90;;;;;;5094496;28;20089;-78
2023/01/25 05:22:00;;;;;;;17.37;7.27;;;3.40;99.90;;;;;;5094942;28;20070;-76
2023/01/25 05:24:27;;;;;;;17.70;7.77;;;3.40;99.90;;;;;;5113308;28;20457;-75
2023/01/25 05:27:04;;;;;;;18.10;8.13;;;3.40;99.90;;;;;;5094307;28;20854;-76
2023/01/25 05:29:35;;;;;;;16.23;7.13;;;3.40;99.90;;;;;;5094903;28;20023;-84
2023/01/25 05:32:06;;;;;;;16.97;7.57;;;3.30;99.90;;;;;;5094699;28;20114;-75
2023/01/25 05:34:32;;;;;;;17.27;7.30;;;3.30;99.90;;;;;;5112884;28;20028;-86
2023/01/25 05:36:58;;;;;;;16.33;7.63;;;3.20;99.90;;;;;;5113363;28;20043;-76
2023/01/25 05:39:24;;;;;;;15.47;6.80;;;3.20;99.90;;;;;;5114430;28;20399;-75
2023/01/25 05:41:50;;;;;;;17.40;7.07;;;3.10;99.90;;;;;;5098587;28;20028;-76
2023/01/25 05:44:15;;;;;;;14.30;6.40;;;3.10;99.90;;;;;;5117464;28;20509;-76
2023/01/25 05:46:41;;;;;;;18.07;7.20;;;3.10;99.90;;;;;;5098688;28;20019;-76
2023/01/25 05:49:07;;;;;;;16.07;6.70;;;3.10;99.90;;;;;;5116997;28;20027;-75
2023/01/25 05:51:34;;;;;;;17.83;8.07;;;3.10;99.90;;;;;;5116793;28;20032;-86
2023/01/25 05:54:00;;;;;;;17.97;6.43;;;3.10;99.90;;;;;;5117126;28;20020;-75
2023/01/25 05:56:26;;;;;;;18.10;7.30;;;3.00;99.90;;;;;;5098740;28;20108;-75
2023/01/25 05:58:56;;;;;;;13.87;6.87;;;3.10;99.90;;;;;;5116534;28;20047;-76
2023/01/25 06:01:23;;;;;;;15.90;7.93;;;3.00;99.90;;;;;;5098744;28;20088;-76
2023/01/25 06:03:48;;;;;;;15.33;7.10;;;3.00;99.90;;;;;;5116196;28;20032;-76
2023/01/25 06:06:14;;;;;;;15.43;7.60;;;3.00;99.90;;;;;;5116727;28;20035;-75
2023/01/25 06:08:40;;;;;;;14.60;6.70;;;3.00;99.90;;;;;;5097778;28;20513;-76
2023/01/25 06:11:14;;;;;;;15.03;6.70;;;3.00;99.90;;;;;;5116695;28;20070;-76
2023/01/25 06:13:40;;;;;;;20.27;8.10;;;3.00;99.90;;;;;;5115887;28;20130;-76
2023/01/25 06:16:06;;;;;;;16.73;6.87;;;3.00;99.90;;;;;;5115953;28;20047;-76
2023/01/25 06:18:33;;;;;;;15.30;6.87;;;3.00;99.90;;;;;;5103782;28;20104;-86
2023/01/25 06:21:01;;;;;;;16.63;7.03;;;3.00;99.90;;;;;;5116279;28;20027;-76
2023/01/25 06:23:27;;;;;;;17.90;7.67;;;3.00;99.90;;;;;;5116343;28;20027;-76
2023/01/25 06:26:00;;;;;;;15.13;6.80;;;3.00;99.90;;;;;;5115684;28;20035;-76
2023/01/25 06:28:28;;;;;;;16.70;7.20;;;2.90;99.90;;;;;;5116363;28;20031;-74
2023/01/25 06:30:54;;;;;;;15.80;6.53;;;2.90;99.90;;;;;;5113912;28;20177;-75
2023/01/25 06:33:19;;;;;;;18.60;7.53;;;2.90;99.90;;;;;;5116031;28;20461;-75
2023/01/25 06:35:45;;;;;;;20.93;8.17;;;2.90;99.90;;;;;;5115018;28;20062;-75
2023/01/25 06:38:10;;;;;;;16.67;7.37;;;2.90;99.90;;;;;;5114516;28;20024;-75
2023/01/25 06:40:36;;;;;;;15.17;7.10;;;2.90;99.90;;;;;;5114056;28;20019;-84
2023/01/25 06:43:09;;;;;;;17.43;7.47;;;2.90;99.90;;;;;;5115561;28;20469;-75
2023/01/25 06:45:35;;;;;;;17.40;7.50;;;2.90;99.90;;;;;;5115294;28;20027;-86
2023/01/25 06:48:00;;;;;;;17.10;7.37;;;2.80;99.90;;;;;;5115590;28;20492;-75
2023/01/25 06:50:26;;;;;;;19.73;8.00;;;2.90;99.90;;;;;;5096628;28;20076;-75
2023/01/25 06:52:53;;;;;;;17.53;7.87;;;2.90;99.90;;;;;;5096825;28;20039;-75
2023/01/25 06:55:19;;;;;;;18.13;7.43;;;2.90;99.90;;;;;;5115651;28;20084;-75
2023/01/25 06:57:44;;;;;;;18.17;7.30;;;2.90;99.90;;;;;;5114676;28;20023;-76
2023/01/25 07:00:11;;;;;;;14.63;7.20;;;2.80;99.90;;;;;;5097347;28;20361;-75
2023/01/25 07:02:36;;;;;;;16.50;7.50;;;2.80;99.90;;;;;;5096666;28;20034;-85
2023/01/25 07:05:02;;;;;;;18.93;7.73;;;2.80;99.90;;;;;;5115091;28;20440;-76
2023/01/25 07:07:28;;;;;;;15.20;7.17;;;2.80;99.90;;;;;;5115329;28;20081;-76
2023/01/25 07:09:53;;;;;;;18.50;7.67;;;2.80;99.90;;;;;;5096306;28;20062;-75
2023/01/25 07:12:19;;;;;;;16.00;7.30;;;2.80;99.90;;;;;;5096831;28;20023;-75
2023/01/25 07:14:47;;;;;;;16.30;7.00;;;2.80;99.90;;;;;;5096422;28;20035;-76
2023/01/25 07:17:13;;;;;;;16.20;7.00;;;2.80;99.90;;;;;;5115270;28;20052;-76
2023/01/25 07:19:38;;;;;;;14.67;6.43;;;2.70;99.90;;;;;;5092770;28;20076;-84
2023/01/25 07:22:04;;;;;;;17.93;6.83;;;2.80;99.90;;;;;;5093181;28;20453;-75
2023/01/25 07:24:29;;;;;;;13.73;6.87;;;2.80;99.90;;;;;;5093282;28;20035;-75
2023/01/25 07:26:55;;;;;;;18.87;7.70;;;2.80;99.90;;;;;;5093892;28;20024;-76
2023/01/25 07:29:21;;;;;;;16.57;7.37;;;2.80;99.90;;;;;;5093388;28;20024;-75
2023/01/25 07:31:46;;;;;;;17.13;7.70;;;2.80;99.90;;;;;;5092959;28;20020;-76
2023/01/25 07:34:12;;;;;;;15.33;7.00;;;2.80;99.90;;;;;;5093828;28;20169;-77
2023/01/25 07:36:39;;;;;;;14.63;7.23;;;2.80;99.90;;;;;;5093307;28;20028;-84
2023/01/25 07:39:08;;;;;;;16.43;6.77;;;2.80;99.90;;;;;;5093640;28;20038;-76
2023/01/25 07:41:34;;;;;;;15.97;6.93;;;2.80;99.90;;;;;;5092981;28;20107;-76
2023/01/25 07:44:00;;;;;;;14.87;6.90;;;2.80;99.90;;;;;;5093538;28;20135;-76
2023/01/25 07:46:25;;;;;;;16.37;7.13;;;2.90;99.90;;;;;;5093385;28;20077;-76
2023/01/25 07:48:52;;;;;;;12.97;6.40;;;2.90;99.90;;;;;;5092546;28;20460;-77
2023/01/25 07:51:25;;;;;;;15.47;6.53;;;2.90;99.90;;;;;;5093078;28;20441;-76
2023/01/25 07:53:56;;;;;;;17.70;7.17;;;2.90;99.90;;;;;;5092659;28;20028;-77
2023/01/25 07:56:24;;;;;;;15.70;6.83;;;2.90;99.90;;;;;;5093127;28;20052;-75
2023/01/25 07:58:53;;;;;;;21.50;7.10;;;2.90;99.90;;;;;;5093799;28;20031;-76
2023/01/25 08:01:21;;;;;;;17.87;6.37;;;2.90;99.90;;;;;;5092472;28;20024;-77
2023/01/25 08:03:48;;;;;;;18.00;7.23;;;2.90;99.90;;;;;;5091394;28;20085;-76
2023/01/25 08:06:14;;;;;;;18.93;8.00;;;2.90;99.90;;;;;;5092734;28;20028;-75
2023/01/25 08:08:46;;;;;;;21.23;7.90;;;2.90;99.90;;;;;;5092836;28;20431;-85
2023/01/25 08:11:21;;;;;;;18.13;7.90;;;2.90;99.90;;;;;;5092890;28;20115;-75
2023/01/25 08:13:48;;;;;;;15.67;6.87;;;2.90;99.90;;;;;;5092334;28;20122;-76
2023/01/25 08:16:19;;;;;;;15.43;7.17;;;2.90;99.90;;;;;;5092630;28;20062;-76
2023/01/25 08:18:54;;;;;;;17.23;7.47;;;2.90;99.90;;;;;;5104339;28;20127;-76
2023/01/25 08:21:20;;;;;;;19.87;7.67;;;3.00;99.90;;;;;;5095654;28;20074;-76
2023/01/25 08:23:46;;;;;;;20.60;7.50;;;2.90;99.90;;;;;;5113448;28;20039;-76
2023/01/25 08:26:13;;;;;;;20.33;8.03;;;3.00;99.90;;;;;;5114072;28;20027;-76
2023/01/25 08:28:39;;;;;;;20.87;8.00;;;3.00;99.90;;;;;;5113661;28;20031;-78
2023/01/25 08:31:17;;;;;;;17.60;7.70;;;3.00;99.90;;;;;;5112712;28;20520;-81
2023/01/25 08:33:45;;;;;;;20.60;8.90;;;3.00;99.90;;;;;;5093470;28;20043;-88
2023/01/25 08:36:12;;;;;;;19.10;7.27;;;3.00;99.90;;;;;;5095766;28;20020;-76
2023/01/25 08:38:38;;;;;;;19.57;8.00;;;3.00;99.90;;;;;;5095407;28;20122;-75
2023/01/25 08:41:09;;;;;;;20.20;8.13;;;3.00;99.90;;;;;;5094570;28;20152;-76
2023/01/25 08:43:35;;;;;;;20.10;8.30;;;3.10;99.90;;;;;;5087709;28;20167;-78
2023/01/25 08:46:02;;;;;;;18.70;8.30;;;3.10;99.90;;;;;;5093543;28;20445;-77
2023/01/25 08:48:27;;;;;;;17.87;7.93;;;3.10;99.90;;;;;;5105750;28;20024;-77
2023/01/25 08:50:53;;;;;;;18.97;8.17;;;3.10;99.90;;;;;;5111921;28;20035;-77
2023/01/25 08:53:19;;;;;;;22.23;8.73;;;3.10;99.90;;;;;;5095007;28;20036;-76
2023/01/25 08:55:44;;;;;;;17.00;7.93;;;3.10;99.90;;;;;;5112198;28;20490;-85
2023/01/25 08:58:12;;;;;;;20.20;8.73;;;3.10;99.90;;;;;;5094547;28;20031;-77
2023/01/25 09:00:38;;;;;;;19.53;7.77;;;3.10;99.90;;;;;;5099414;28;20072;-75
2023/01/25 09:03:05;;;;;;;18.83;8.13;;;3.20;99.90;;;;;;5111957;28;20050;-74
2023/01/25 09:05:33;;;;;;;19.23;8.43;;;3.20;99.90;;;;;;5093676;28;20038;-74
2023/01/25 09:08:00;;;;;;;21.80;8.73;;;3.20;99.90;;;;;;5109648;28;20034;-75
2023/01/25 09:10:25;;;;;;;20.50;8.10;;;3.20;99.90;;;;;;5113448;28;20020;-76
2023/01/25 09:12:51;;;;;;;20.93;8.43;;;3.10;99.90;;;;;;5093897;28;20451;-75
2023/01/25 09:15:16;;;;;;;22.73;8.60;;;3.20;99.90;;;;;;5112781;28;20031;-76
2023/01/25 09:17:42;;;;;;;20.83;8.73;;;3.20;99.90;;;;;;5094065;28;20365;-82
2023/01/25 09:20:08;;;;;;;19.50;8.93;;;3.20;99.90;;;;;;5112758;28;20024;-76
2023/01/25 09:22:35;;;;;;;20.27;9.07;;;3.20;99.90;;;;;;5112144;28;20036;-75
2023/01/25 09:25:00;;;;;;;22.20;9.57;;;3.20;99.90;;;;;;5093477;28;20027;-76
2023/01/25 09:27:26;;;;;;;18.23;7.60;;;3.30;99.90;;;;;;5094261;28;20022;-76
2023/01/25 09:29:51;;;;;;;22.07;8.30;;;3.30;99.90;;;;;;5093718;28;20475;-75
2023/01/25 09:32:17;;;;;;;22.07;8.47;;;3.30;99.90;;;;;;5093729;28;20118;-75
2023/01/25 09:34:43;;;;;;;17.17;7.60;;;3.30;99.90;;;;;;5093523;28;20027;-82
2023/01/25 09:37:08;;;;;;;18.53;8.43;;;3.30;99.90;;;;;;5094420;28;20377;-74
2023/01/25 09:39:34;;;;;;;18.93;7.83;;;3.30;99.90;;;;;;5112768;28;20476;-74
2023/01/25 09:42:09;;;;;;;17.43;7.17;;;3.30;99.90;;;;;;5112318;28;20027;-75
2023/01/25 09:45:02;;;;;;;18.70;7.80;;;3.30;99.90;;;;;;5091533;28;20373;-79
2023/01/25 09:47:42;;;;;;;19.27;8.40;;;3.40;99.90;;;;;;5112803;28;20038;-74
2023/01/25 09:50:24;;;;;;;20.10;8.30;;;3.30;99.90;;;;;;5093896;28;20115;-74
2023/01/25 09:52:52;;;;;;;;;;;3.30;99.90;;;;;;5112390;28;20031;-73
2023/01/25 09:55:23;;;;;;;20.73;8.73;;;3.40;99.90;;;;;;5094385;28;19911;-74
2023/01/25 09:57:52;;;;;;;20.93;8.23;;;3.40;99.90;;;;;;5073773;28;20028;-75
2023/01/25 10:00:30;;;;;;;15.07;7.50;;;3.40;99.90;;;;;;5074169;28;20081;-74
2023/01/25 10:03:19;;;;;;;19.07;8.43;;;3.40;99.90;;;;;;5091591;28;20358;-74
2023/01/25 10:05:55;;;;;;;19.53;8.00;;;3.40;99.90;;;;;;5092210;28;20028;-83
2023/01/25 10:08:40;;;;;;;23.10;7.90;;;3.40;99.90;;;;;;5093451;28;20020;-74
2023/01/25 10:11:26;;;;;;;18.43;8.30;;;3.30;99.90;;;;;;5093785;28;20073;-74
2023/01/25 10:13:55;;;;;;;24.30;8.80;;;3.40;99.90;;;;;;5110311;28;20028;-74
2023/01/25 10:16:49;;;;;;;17.67;7.53;;;3.40;99.90;;;;;;5111847;28;20024;-74
2023/01/25 10:19:22;;;;;;;21.00;8.87;;;3.40;99.90;;;;;;5090628;28;20048;-73
2023/01/25 10:21:59;;;;;;;18.87;8.47;;;3.40;99.90;;;;;;5076732;28;20024;-75
2023/01/25 10:24:43;;;;;;;21.83;8.70;;;3.40;99.90;;;;;;5093615;28;20491;-75
2023/01/25 10:27:30;;;;;;;22.47;8.83;;;3.40;99.90;;;;;;5097521;28;20031;-74
2023/01/25 10:30:01;;;;;;;25.87;9.50;;;3.40;99.90;;;;;;5082285;28;20020;-76
2023/01/25 10:32:31;;;;;;;20.83;8.43;;;3.40;99.90;;;;;;5097578;28;20032;-75
2023/01/25 10:35:00;;;;;;;19.73;9.23;;;3.50;99.90;;;;;;5115488;28;20365;-75
2023/01/25 10:37:33;;;;;;;22.43;8.47;;;3.40;99.90;;;;;;5097556;28;20031;-75
2023/01/25 10:40:20;;;;;;;19.13;7.70;;;3.50;99.90;;;;;;5096870;28;20024;-74
2023/01/25 10:43:10;;;;;;;19.97;8.77;;;3.50;99.90;;;;;;5081718;28;20054;-80
2023/01/25 10:45:37;;;;;;;25.03;10.60;;;3.50;99.90;;;;;;5096836;28;20103;-74
2023/01/25 10:48:16;;;;;;;25.30;9.67;;;3.50;99.90;;;;;;5114896;28;20047;-74
2023/01/25 10:50:45;;;;;;;25.63;9.43;;;3.50;99.90;;;;;;5094639;28;20024;-76
2023/01/25 10:53:30;;;;;;;24.70;9.27;;;3.50;99.90;;;;;;5114377;28;20039;-74
2023/01/25 10:56:05;;;;;;;19.53;8.47;;;3.40;99.90;;;;;;5114635;28;20023;-74
2023/01/25 10:58:53;;;;;;;24.07;8.43;;;3.40;99.90;;;;;;5096901;28;20084;-76
2023/01/25 11:01:32;;;;;;;27.00;8.80;;;3.50;99.90;;;;;;5115432;28;20041;-75
2023/01/25 11:03:59;;;;;;;22.13;9.50;;;3.50;99.90;;;;;;5093099;28;20118;-75
2023/01/25 11:06:45;;;;;;;18.80;8.10;;;3.50;99.90;;;;;;5085665;28;20496;-74
2023/01/25 11:09:32;;;;;;;22.60;9.33;;;3.50;99.90;;;;;;5096733;28;20024;-73
2023/01/25 11:12:01;;;;;;;21.30;8.57;;;3.50;99.90;;;;;;5113967;28;20028;-74
2023/01/25 11:14:29;;;;;;;17.00;7.90;;;3.50;99.90;;;;;;5095424;28;20426;-75
2023/01/25 11:16:57;;;;;;;20.17;7.73;;;3.50;99.90;;;;;;5113789;28;20487;-74
2023/01/25 11:19:30;;;;;;;23.43;8.60;;;3.50;99.90;;;;;;5114351;28;20040;-77
2023/01/25 11:21:57;;;;;;;20.90;7.97;;;3.50;99.90;;;;;;5113147;28;20080;-74
2023/01/25 11:24:41;;;;;;;22.27;9.07;;;3.50;99.90;;;;;;5113538;28;20058;-74
2023/01/25 11:27:23;;;;;;;26.53;8.43;;;3.60;99.90;;;;;;5113466;28;20015;-73
2023/01/25 11:30:04;;;;;;;24.67;8.23;;;3.50;99.90;;;;;;5092481;28;20059;-74
2023/01/25 11:32:31;;;;;;;17.03;7.93;;;3.60;99.90;;;;;;5095357;28;20126;-74
2023/01/25 11:34:57;;;;;;;21.40;7.77;;;3.60;99.90;;;;;;5094187;28;20114;-74
2023/01/25 11:37:59;;;;;;;20.43;7.63;;;3.60;99.90;;;;;;5092410;28;20074;-75
2023/01/25 11:40:40;;;;;;;16.83;7.40;;;3.70;99.90;;;;;;5094141;28;20433;-75
2023/01/25 11:43:25;;;;;;;16.40;5.95;;;3.70;99.90;;;;;;5092531;28;20028;-74
2023/01/25 11:46:05;;;;;;;23.30;8.13;;;3.60;99.90;;;;;;5106013;28;20027;-75
2023/01/25 11:48:49;;;;;;;19.03;7.50;;;3.60;99.90;;;;;;5113763;28;20019;-73
2023/01/25 11:51:40;;;;;;;23.20;7.90;;;3.70;99.90;;;;;;5081520;28;21368;-77
2023/01/25 11:54:32;;;;;;;19.13;8.00;;;3.60;99.90;;;;;;5096374;28;20030;-75
2023/01/25 11:56:59;;;;;;;18.58;8.60;;;3.60;99.90;;;;;;5081687;28;20066;-74
2023/01/25 11:59:53;;;;;;;25.57;8.80;;;3.70;99.90;;;;;;5095878;28;20461;-74
2023/01/25 12:02:37;;;;;;;18.63;7.57;;;3.70;99.90;;;;;;5095988;28;20445;-75
2023/01/25 12:05:38;;;;;;;19.70;7.30;;;3.60;99.90;;;;;;5095179;28;20073;-74
2023/01/25 12:08:35;;;;;;;20.87;8.00;;;3.60;99.90;;;;;;5095438;28;20027;-76
2023/01/25 12:11:19;;;;;;;16.77;7.07;;;3.70;99.90;;;;;;5113360;28;20028;-74
2023/01/25 12:14:42;;;;;;;19.50;7.30;;;3.70;99.90;;;;;;5091238;28;20027;-79
2023/01/25 12:17:26;;;;;;;17.30;7.25;;;3.70;99.90;;;;;;5041579;28;20100;-75
2023/01/25 12:20:08;;;;;;;15.73;6.13;;;3.70;99.90;;;;;;5090630;28;20039;-81
2023/01/25 12:22:49;;;;;;;15.50;7.05;;;3.70;99.90;;;;;;5091911;28;20071;-75
2023/01/25 12:25:28;;;;;;;22.03;6.97;;;3.70;99.90;;;;;;5113310;28;20485;-75
2023/01/25 12:28:13;;;;;;;15.43;7.10;;;3.70;99.90;;;;;;5082962;28;20063;-75
2023/01/25 12:31:20;;;;;;;17.80;6.60;;;3.70;99.90;;;;;;5095036;28;20357;-72
2023/01/25 12:33:59;;;;;;;20.17;6.77;;;3.70;99.90;;;;;;5088492;28;20069;-78
2023/01/25 12:36:36;;;;;;;19.00;7.20;;;3.60;99.90;;;;;;5112809;28;20027;-76
2023/01/25 12:39:08;;;;;;;17.57;6.83;;;3.70;99.90;;;;;;5094256;28;20028;-76
2023/01/25 12:42:01;;;;;;;18.55;7.25;;;3.70;99.90;;;;;;5112982;28;20032;-75
2023/01/25 12:44:50;;;;;;;16.40;6.73;;;3.70;99.90;;;;;;5089705;28;20031;-76
2023/01/25 12:47:52;;;;;;;16.20;6.80;;;3.70;99.90;;;;;;5092772;28;20027;-75
2023/01/25 12:50:24;;;;;;;15.75;6.30;;;3.70;99.90;;;;;;5075131;28;20036;-75
2023/01/25 12:52:54;;;;;;;15.23;6.15;;;3.70;99.90;;;;;;5090720;28;20040;-78
2023/01/25 12:55:20;;;;;;;19.17;6.97;;;3.70;99.90;;;;;;5088936;28;20490;-77
2023/01/25 12:57:58;;;;;;;15.53;6.83;;;3.70;99.90;;;;;;5095037;28;20032;-82
2023/01/25 13:00:44;;;;;;;15.67;6.47;;;3.60;99.90;;;;;;5095019;28;20024;-75
2023/01/25 13:03:31;;;;;;;18.40;6.90;;;3.70;99.90;;;;;;5112939;28;20034;-74
2023/01/25 13:06:11;;;;;;;16.87;6.60;;;3.70;99.90;;;;;;5094001;28;20472;-74